createdAt,value
2022-11-24T00:01:15.835Z,60.97
2022-11-24T00:03:44.040Z,60.93
2022-11-24T00:06:13.798Z,61.51
2022-11-24T00:08:42.818Z,61.88
2022-11-24T00:11:13.231Z,61.56
2022-11-24T00:13:41.605Z,61.34
2022-11-24T00:16:13.709Z,60.14
2022-11-24T00:18:42.297Z,60.05
2022-11-24T00:21:10.371Z,59.52
2022-11-24T00:23:38.255Z,59.91
2022-11-24T00:26:06.531Z,60.51
2022-11-24T00:28:35.220Z,58.91
2022-11-24T00:31:03.017Z,60.53
2022-11-24T00:33:30.050Z,59.36
2022-11-24T00:35:58.871Z,59.01
2022-11-24T00:38:26.570Z,58.37
2022-11-24T00:40:55.479Z,57.52
2022-11-24T00:43:22.571Z,58.09
2022-11-24T00:45:49.849Z,58.18
2022-11-24T00:48:16.895Z,58.65
2022-11-24T00:50:43.899Z,58.12
2022-11-24T00:53:10.951Z,58.29
2022-11-24T00:55:38.067Z,57.87
2022-11-24T00:58:05.115Z,57.54
2022-11-24T01:00:35.343Z,56.46
2022-11-24T01:03:05.207Z,56.02
2022-11-24T01:05:32.247Z,56.13
2022-11-24T01:07:59.118Z,56.46
2022-11-24T01:10:26.375Z,56.06
2022-11-24T01:12:53.747Z,56.13
2022-11-24T01:15:23.862Z,56.25
2022-11-24T01:17:51.376Z,56.11
2022-11-24T01:20:18.516Z,55.71
2022-11-24T01:22:48.819Z,56.41
2022-11-24T01:25:16.319Z,56.42
2022-11-24T01:27:43.304Z,57.19
2022-11-24T01:30:11.210Z,56.25
2022-11-24T01:32:38.199Z,57.95
2022-11-24T01:35:06.390Z,56.00
2022-11-24T01:37:33.521Z,57.07
2022-11-24T01:40:00.918Z,56.94
2022-11-24T01:42:40.302Z,57.04
2022-11-24T01:45:28.558Z,56.97
2022-11-24T01:47:56.310Z,56.79
2022-11-24T01:50:23.813Z,56.83
2022-11-24T01:52:54.277Z,57.06
2022-11-24T01:55:34.003Z,56.74
2022-11-24T01:58:09.075Z,57.28
2022-11-24T02:00:38.656Z,56.89
2022-11-24T02:03:06.667Z,56.91
2022-11-24T02:05:41.286Z,57.00
2022-11-24T02:08:19.538Z,57.52
2022-11-24T02:10:47.511Z,57.19
2022-11-24T02:13:15.993Z,57.06
2022-11-24T02:15:43.255Z,57.63
2022-11-24T02:18:12.428Z,57.81
2022-11-24T02:20:39.638Z,56.88
2022-11-24T02:23:21.552Z,57.14
2022-11-24T02:26:11.794Z,57.27
2022-11-24T02:28:39.205Z,57.37
2022-11-24T02:31:06.484Z,57.08
2022-11-24T02:33:34.901Z,57.26
2022-11-24T02:36:01.955Z,57.60
2022-11-24T02:38:37.712Z,57.76
2022-11-24T02:41:11.451Z,58.79
2022-11-24T02:43:55.060Z,58.32
2022-11-24T02:46:22.519Z,57.78
2022-11-24T02:48:49.510Z,58.63
2022-11-24T02:51:16.645Z,58.73
2022-11-24T02:53:43.994Z,59.37
2022-11-24T02:56:11.042Z,59.87
2022-11-24T02:58:38.164Z,60.00
2022-11-24T03:01:05.478Z,59.99
2022-11-24T03:03:32.628Z,60.22
2022-11-24T03:05:59.666Z,60.37
2022-11-24T03:08:26.586Z,60.67
2022-11-24T03:10:54.678Z,61.45
2022-11-24T03:13:21.765Z,61.47
2022-11-24T03:15:49.075Z,61.44
2022-11-24T03:18:16.142Z,61.31
2022-11-24T03:20:43.051Z,61.71
2022-11-24T03:23:10.319Z,62.07
2022-11-24T03:25:37.376Z,61.62
2022-11-24T03:28:10.062Z,61.88
2022-11-24T03:30:37.136Z,61.21
2022-11-24T03:33:05.248Z,60.79
2022-11-24T03:35:32.227Z,59.94
2022-11-24T03:37:59.350Z,60.12
2022-11-24T03:40:26.440Z,60.55
2022-11-24T03:42:53.546Z,60.37
2022-11-24T03:45:44.910Z,59.88
2022-11-24T03:48:08.220Z,59.60
2022-11-24T03:50:35.343Z,59.75
2022-11-24T03:53:02.482Z,60.02
2022-11-24T03:55:29.424Z,60.52
2022-11-24T03:57:56.507Z,60.43
2022-11-24T04:00:23.516Z,60.63
2022-11-24T04:02:50.767Z,60.58
2022-11-24T04:05:17.817Z,59.97
2022-11-24T04:07:44.919Z,60.34
2022-11-24T04:10:12.003Z,60.26
2022-11-24T04:12:46.232Z,60.48
2022-11-24T04:15:15.937Z,59.53
2022-11-24T04:17:44.285Z,59.55
2022-11-24T04:20:12.532Z,59.60
2022-11-24T04:22:40.064Z,60.26
2022-11-24T04:25:08.508Z,59.75
2022-11-24T04:27:37.192Z,59.74
2022-11-24T04:30:08.145Z,59.17
2022-11-24T04:32:35.776Z,58.65
2022-11-24T04:35:04.465Z,58.97
2022-11-24T04:37:31.496Z,57.79
2022-11-24T04:39:58.508Z,58.29
2022-11-24T04:42:25.541Z,58.19
2022-11-24T04:44:52.759Z,57.84
2022-11-24T04:47:25.641Z,58.21
2022-11-24T04:49:55.623Z,58.11
2022-11-24T04:52:24.491Z,57.62
2022-11-24T04:54:51.950Z,58.12
2022-11-24T04:57:24.820Z,58.48
2022-11-24T04:59:52.906Z,57.75
2022-11-24T05:02:20.791Z,57.70
2022-11-24T05:04:48.221Z,57.29
2022-11-24T05:07:18.975Z,57.22
2022-11-24T05:10:05.937Z,57.72
2022-11-24T05:12:33.171Z,57.51
2022-11-24T05:15:05.012Z,57.14
2022-11-24T05:17:34.981Z,58.72
2022-11-24T05:20:02.397Z,57.19
2022-11-24T05:22:31.761Z,57.79
2022-11-24T05:24:59.115Z,57.81
2022-11-24T05:27:26.073Z,57.37
2022-11-24T05:29:53.224Z,57.56
2022-11-24T05:32:20.372Z,56.93
2022-11-24T05:34:48.101Z,56.81
2022-11-24T05:37:15.184Z,56.33
2022-11-24T05:39:42.132Z,55.85
2022-11-24T05:42:28.173Z,56.61
2022-11-24T05:44:55.330Z,56.49
2022-11-24T05:47:22.366Z,56.51
2022-11-24T05:49:49.893Z,56.16
2022-11-24T05:52:17.013Z,56.77
2022-11-24T05:54:44.037Z,56.46
2022-11-24T05:57:10.938Z,56.75
2022-11-24T05:59:38.009Z,57.16
2022-11-24T06:02:05.090Z,56.24
2022-11-24T06:04:32.596Z,56.52
2022-11-24T06:07:00.023Z,56.62
2022-11-24T06:09:27.188Z,57.36
2022-11-24T06:11:56.790Z,56.50
2022-11-24T06:14:24.395Z,56.51
2022-11-24T06:16:51.672Z,56.71
2022-11-24T06:19:18.740Z,56.62
2022-11-24T06:21:45.688Z,56.09
2022-11-24T06:24:12.894Z,55.91
2022-11-24T06:26:39.861Z,55.78
2022-11-24T06:29:07.023Z,55.82
2022-11-24T06:31:34.034Z,55.65
2022-11-24T06:34:01.138Z,55.45
2022-11-24T06:36:28.335Z,55.77
2022-11-24T06:38:55.452Z,55.78
2022-11-24T06:41:22.395Z,54.92
2022-11-24T06:43:49.429Z,55.44
2022-11-24T06:46:16.410Z,55.25
2022-11-24T06:48:43.427Z,55.18
2022-11-24T06:51:15.393Z,55.08
2022-11-24T06:53:42.369Z,54.39
2022-11-24T06:56:16.393Z,54.60
2022-11-24T06:58:46.418Z,55.10
2022-11-24T07:01:32.518Z,55.48
2022-11-24T07:03:59.674Z,54.95
2022-11-24T07:06:28.513Z,54.93
2022-11-24T07:08:55.641Z,55.25
2022-11-24T07:11:24.135Z,55.86
2022-11-24T07:13:55.178Z,55.76
2022-11-24T07:16:26.672Z,55.90
2022-11-24T07:18:56.022Z,55.73
2022-11-24T07:21:24.253Z,55.55
2022-11-24T07:23:53.096Z,56.28
2022-11-24T07:26:20.699Z,55.60
2022-11-24T07:28:47.730Z,56.12
2022-11-24T07:31:21.079Z,56.30
2022-11-24T07:33:53.723Z,56.10
2022-11-24T07:36:22.005Z,56.35
2022-11-24T07:38:50.249Z,57.11
2022-11-24T07:41:22.469Z,56.88
2022-11-24T07:43:51.010Z,56.60
2022-11-24T07:46:22.739Z,56.59
2022-11-24T07:48:50.443Z,56.21
2022-11-24T07:51:23.139Z,56.50
2022-11-24T07:53:56.450Z,56.57
2022-11-24T07:56:28.805Z,56.84
2022-11-24T07:58:58.644Z,57.01
2022-11-24T08:01:26.986Z,57.70
2022-11-24T08:03:58.088Z,56.75
2022-11-24T08:06:27.674Z,56.46
2022-11-24T08:08:58.458Z,56.25
2022-11-24T08:11:26.285Z,56.44
2022-11-24T08:13:54.111Z,55.84
2022-11-24T08:16:21.283Z,54.88
2022-11-24T08:18:54.003Z,54.20
2022-11-24T08:21:23.400Z,53.59
2022-11-24T08:23:56.834Z,53.63
2022-11-24T08:26:25.358Z,53.70
2022-11-24T08:28:58.130Z,53.75
2022-11-24T08:31:34.300Z,53.47
2022-11-24T08:34:02.948Z,53.77
2022-11-24T08:36:30.018Z,53.96
2022-11-24T08:38:59.110Z,53.65
2022-11-24T08:41:28.235Z,53.69
2022-11-24T08:43:56.022Z,54.15
2022-11-24T08:47:13.653Z,53.63
2022-11-24T08:49:34.756Z,54.53
2022-11-24T08:52:10.039Z,54.14
2022-11-24T08:54:42.879Z,53.51
2022-11-24T08:57:21.649Z,53.86
2022-11-24T09:00:07.675Z,53.81
2022-11-24T09:02:46.367Z,53.47
2022-11-24T09:08:11.697Z,54.06
2022-11-24T09:13:46.344Z,53.69
2022-11-24T09:16:23.134Z,54.13
2022-11-24T09:32:16.480Z,54.70
2022-11-24T09:37:48.728Z,54.25
2022-11-24T09:44:11.144Z,54.49
2022-11-24T09:46:53.127Z,53.46
2022-11-24T09:50:02.634Z,53.46
2022-11-24T09:53:16.053Z,53.81
2022-11-24T09:56:26.956Z,54.25
2022-11-24T09:59:03.707Z,53.85
2022-11-24T10:01:47.921Z,53.65
2022-11-24T10:04:42.350Z,54.25
2022-11-24T10:07:12.145Z,53.74
2022-11-24T10:09:44.944Z,53.30
2022-11-24T10:12:21.356Z,53.39
2022-11-24T10:15:16.577Z,53.39
2022-11-24T10:18:13.237Z,54.49
2022-11-24T10:21:06.388Z,54.32
2022-11-24T10:24:08.192Z,54.22
2022-11-24T10:27:28.095Z,54.43
2022-11-24T10:30:23.740Z,55.14
2022-11-24T10:33:30.552Z,54.81
2022-11-24T10:36:23.199Z,55.23
2022-11-24T10:39:24.119Z,55.31
2022-11-24T10:43:00.263Z,55.43
2022-11-24T10:45:37.542Z,55.91
2022-11-24T10:48:09.082Z,55.94
2022-11-24T10:50:41.752Z,55.51
2022-11-24T10:53:08.910Z,56.29
2022-11-24T10:55:56.460Z,55.61
2022-11-24T11:03:40.448Z,55.59
2022-11-24T11:06:51.797Z,55.19
2022-11-24T11:10:18.849Z,54.16
2022-11-24T11:12:48.610Z,54.31
2022-11-24T11:15:29.661Z,54.25
2022-11-24T11:18:26.022Z,54.34
2022-11-24T11:21:46.280Z,55.00
2022-11-24T11:25:27.853Z,54.88
2022-11-24T11:35:53.499Z,56.08
2022-11-24T11:38:21.203Z,56.40
2022-11-24T11:43:46.015Z,56.47
2022-11-24T11:46:27.327Z,56.81
2022-11-24T11:48:59.948Z,56.09
2022-11-24T11:51:59.347Z,56.40
2022-11-24T12:02:36.639Z,56.43
2022-11-24T12:05:26.237Z,56.83
2022-11-24T12:08:16.018Z,56.73
2022-11-24T12:11:10.327Z,56.64
2022-11-24T12:14:19.805Z,56.52
2022-11-24T12:17:27.699Z,56.63
2022-11-24T12:20:46.044Z,57.40
2022-11-24T12:24:07.588Z,57.61
2022-11-24T12:27:23.341Z,58.22
2022-11-24T12:30:53.435Z,58.19
2022-11-24T12:34:44.295Z,58.76
2022-11-24T12:37:46.228Z,59.19
2022-11-24T12:44:10.159Z,58.52
2022-11-24T12:47:28.296Z,59.20
2022-11-24T12:50:16.527Z,59.01
2022-11-24T13:06:02.847Z,59.24
2022-11-24T13:08:51.682Z,60.10
2022-11-24T13:11:22.519Z,60.09
2022-11-24T13:14:11.475Z,60.43
2022-11-24T13:17:21.875Z,60.23
2022-11-24T13:21:43.483Z,60.48
2022-11-24T13:32:55.150Z,60.72
2022-11-24T13:38:58.218Z,61.05
2022-11-24T13:52:42.353Z,59.95
2022-11-24T13:55:23.609Z,60.47
2022-11-24T13:57:54.491Z,60.79
2022-11-24T14:00:33.460Z,61.15
2022-11-24T14:03:30.912Z,60.54
2022-11-24T14:05:59.558Z,61.16
2022-11-24T14:08:30.423Z,60.92
2022-11-24T14:10:59.450Z,60.56
2022-11-24T14:13:32.567Z,60.53
2022-11-24T14:16:12.687Z,59.44
2022-11-24T14:18:42.815Z,59.51
2022-11-24T14:21:44.611Z,60.38
2022-11-24T14:24:53.878Z,59.95
2022-11-24T14:27:41.210Z,60.21
2022-11-24T14:30:22.391Z,60.06
2022-11-24T14:32:56.043Z,60.78
2022-11-24T14:35:26.212Z,60.69
2022-11-24T14:37:56.043Z,60.57
2022-11-24T14:44:01.514Z,61.15
2022-11-24T14:46:28.826Z,60.96
2022-11-24T14:48:59.248Z,60.65
2022-11-24T14:51:33.227Z,61.32
2022-11-24T14:54:12.418Z,61.54
2022-11-24T14:56:46.201Z,61.52
2022-11-24T14:59:26.651Z,60.57
2022-11-24T15:01:59.781Z,61.16
2022-11-24T15:07:19.631Z,60.85
2022-11-24T15:10:43.728Z,61.40
2022-11-24T15:13:21.658Z,60.71
2022-11-24T15:16:03.416Z,60.60
2022-11-24T15:18:56.984Z,60.16
2022-11-24T15:21:35.386Z,59.80
2022-11-24T15:24:19.513Z,60.18
2022-11-24T15:26:47.129Z,64.52
2022-11-24T15:29:14.802Z,63.36
2022-11-24T15:31:46.432Z,63.42
2022-11-24T15:34:18.342Z,61.79
2022-11-24T15:36:45.757Z,60.99
2022-11-24T15:39:13.723Z,61.56
2022-11-24T15:41:40.963Z,60.16
2022-11-24T15:44:09.720Z,60.49
2022-11-24T15:46:38.860Z,61.13
2022-11-24T15:49:06.640Z,60.07
2022-11-24T15:51:42.908Z,59.98
2022-11-24T15:54:14.450Z,60.46
2022-11-24T15:56:42.144Z,60.48
2022-11-24T15:59:20.803Z,60.49
2022-11-24T16:01:49.841Z,60.68
2022-11-24T16:04:17.196Z,60.90
2022-11-24T16:06:44.134Z,60.63
2022-11-24T16:09:18.545Z,60.87
2022-11-24T16:11:48.082Z,60.88
2022-11-24T16:14:22.856Z,61.15
2022-11-24T16:16:52.953Z,61.05
2022-11-24T16:19:19.859Z,61.24
2022-11-24T16:21:52.870Z,60.54
2022-11-24T16:24:21.009Z,60.81
2022-11-24T16:26:55.619Z,60.74
2022-11-24T16:29:35.333Z,61.71
2022-11-24T16:32:05.561Z,61.41
2022-11-24T16:34:32.710Z,62.11
2022-11-24T16:37:00.019Z,61.39
2022-11-24T16:39:29.695Z,61.44
2022-11-24T16:41:58.916Z,61.66
2022-11-24T16:44:26.005Z,61.51
2022-11-24T16:46:56.429Z,61.39
2022-11-24T16:49:29.222Z,61.52
2022-11-24T16:51:56.351Z,61.38
2022-11-24T16:54:23.610Z,61.94
2022-11-24T16:56:50.480Z,61.39
2022-11-24T16:59:17.715Z,62.06
2022-11-24T17:01:46.687Z,61.58
2022-11-24T17:04:14.170Z,61.48
2022-11-24T17:06:41.231Z,61.80
2022-11-24T17:09:09.233Z,62.03
2022-11-24T17:11:44.550Z,62.45
2022-11-24T17:14:14.696Z,61.47
2022-11-24T17:16:42.872Z,61.69
2022-11-24T17:19:10.459Z,61.51
2022-11-24T17:21:37.802Z,60.83
2022-11-24T17:24:05.606Z,60.88
2022-11-24T17:26:33.659Z,60.92
2022-11-24T17:29:00.711Z,60.47
2022-11-24T17:31:31.080Z,60.86
2022-11-24T17:34:03.338Z,61.08
2022-11-24T17:36:32.473Z,60.74
2022-11-24T17:39:00.242Z,60.89
2022-11-24T17:41:28.167Z,61.35
2022-11-24T17:43:59.505Z,60.51
2022-11-24T17:46:28.022Z,60.56
2022-11-24T17:48:55.331Z,60.44
2022-11-24T17:51:24.634Z,60.65
2022-11-24T17:54:18.657Z,60.94
2022-11-24T17:56:53.193Z,60.80
2022-11-24T17:59:25.255Z,60.83
2022-11-24T18:01:53.491Z,60.80
2022-11-24T18:04:20.694Z,60.24
2022-11-24T18:06:47.583Z,60.58
2022-11-24T18:09:14.577Z,59.81
2022-11-24T18:11:44.061Z,60.42
2022-11-24T18:14:11.078Z,60.50
2022-11-24T18:16:38.057Z,60.21
2022-11-24T18:19:18.414Z,59.75
2022-11-24T18:21:51.293Z,59.98
2022-11-24T18:27:27.916Z,60.01
2022-11-24T18:30:24.064Z,60.73
2022-11-24T18:33:24.605Z,60.41
2022-11-24T18:36:37.715Z,59.64
2022-11-24T18:39:33.022Z,60.21
2022-11-24T18:42:00.150Z,60.14
2022-11-24T18:44:38.163Z,60.21
2022-11-24T18:52:39.521Z,60.00
2022-11-24T18:55:08.469Z,60.04
2022-11-24T18:57:38.951Z,59.87
2022-11-24T19:00:07.786Z,59.60
2022-11-24T19:02:35.378Z,59.94
2022-11-24T19:05:04.954Z,59.78
2022-11-24T19:07:37.438Z,59.81
2022-11-24T19:10:08.499Z,59.82
2022-11-24T19:12:39.677Z,59.48
2022-11-24T19:15:07.511Z,59.53
2022-11-24T19:17:35.647Z,59.45
2022-11-24T19:20:06.323Z,59.32
2022-11-24T19:22:35.797Z,59.39
2022-11-24T19:25:16.342Z,59.41
2022-11-24T19:28:17.123Z,59.36
2022-11-24T19:31:21.501Z,59.30
2022-11-24T19:34:03.701Z,59.28
2022-11-24T19:36:38.418Z,59.45
2022-11-24T19:39:09.785Z,59.73
2022-11-24T19:41:36.735Z,59.74
2022-11-24T19:44:04.108Z,60.15
2022-11-24T19:46:34.817Z,59.36
2022-11-24T19:49:07.336Z,59.41
2022-11-24T19:51:49.364Z,58.56
2022-11-24T19:54:17.250Z,58.44
2022-11-24T19:56:44.451Z,58.62
2022-11-24T19:59:13.695Z,59.16
2022-11-24T20:01:42.750Z,58.91
2022-11-24T20:04:12.833Z,59.14
2022-11-24T20:06:42.091Z,59.33
2022-11-24T20:09:16.529Z,59.40
2022-11-24T20:11:44.195Z,59.43
2022-11-24T20:17:32.696Z,58.63
2022-11-24T20:20:02.117Z,58.31
2022-11-24T20:22:30.027Z,57.98
2022-11-24T20:24:56.994Z,57.73
2022-11-24T20:27:23.887Z,58.27
2022-11-24T20:29:53.679Z,57.68
2022-11-24T20:32:20.809Z,58.27
2022-11-24T20:34:52.408Z,58.29
2022-11-24T20:37:19.370Z,58.14
2022-11-24T20:39:46.445Z,58.40
2022-11-24T20:42:14.563Z,58.69
2022-11-24T20:44:41.645Z,58.80
2022-11-24T20:47:11.173Z,58.83
2022-11-24T20:49:47.114Z,59.34
2022-11-24T20:52:17.697Z,59.27
2022-11-24T20:54:46.991Z,59.56
2022-11-24T20:57:16.682Z,59.18
2022-11-24T20:59:43.979Z,59.49
2022-11-24T21:02:13.851Z,59.11
2022-11-24T21:04:47.573Z,59.61
2022-11-24T21:07:15.872Z,59.37
2022-11-24T21:09:43.014Z,59.54
2022-11-24T21:12:10.205Z,59.30
2022-11-24T21:14:37.670Z,59.44
2022-11-24T21:17:04.984Z,59.55
2022-11-24T21:19:36.002Z,59.71
2022-11-24T21:22:02.909Z,59.50
2022-11-24T21:24:33.460Z,59.35
2022-11-24T21:27:03.151Z,59.37
2022-11-24T21:29:33.255Z,59.79
2022-11-24T21:32:03.176Z,60.06
2022-11-24T21:34:30.271Z,59.22
2022-11-24T21:37:12.141Z,58.79
2022-11-24T21:39:40.962Z,58.89
2022-11-24T21:42:07.952Z,59.23
2022-11-24T21:44:38.334Z,59.15
2022-11-24T21:47:05.462Z,59.03
2022-11-24T21:49:32.619Z,58.92
2022-11-24T21:51:59.533Z,58.96
2022-11-24T21:54:26.629Z,59.11
2022-11-24T21:56:54.277Z,59.48
2022-11-24T21:59:22.164Z,59.91
2022-11-24T22:01:57.926Z,59.76
2022-11-24T22:04:25.068Z,63.48
2022-11-24T22:06:55.591Z,61.50
2022-11-24T22:09:22.828Z,59.74
2022-11-24T22:11:49.854Z,60.02
2022-11-24T22:14:17.123Z,59.98
2022-11-24T22:16:47.591Z,60.07
2022-11-24T22:19:16.936Z,60.33
2022-11-24T22:21:48.244Z,60.71
2022-11-24T22:24:15.287Z,60.41
2022-11-24T22:26:42.249Z,60.48
2022-11-24T22:29:09.306Z,60.71
2022-11-24T22:31:36.405Z,60.64
2022-11-24T22:34:03.345Z,60.80
2022-11-24T22:36:32.974Z,60.58
2022-11-24T22:39:05.732Z,61.08
2022-11-24T22:41:34.797Z,60.76
2022-11-24T22:44:02.121Z,60.36
2022-11-24T22:46:30.631Z,60.12
2022-11-24T22:49:00.250Z,60.31
2022-11-24T22:51:30.013Z,60.76
2022-11-24T22:54:06.151Z,61.66
2022-11-24T22:56:34.217Z,61.62
2022-11-24T22:59:02.645Z,61.54
2022-11-24T23:01:31.607Z,61.67
2022-11-24T23:03:58.667Z,61.19
2022-11-24T23:06:28.113Z,61.00
2022-11-24T23:08:56.753Z,61.20
2022-11-24T23:11:36.411Z,61.11
2022-11-24T23:14:12.098Z,61.01
2022-11-24T23:16:39.310Z,61.38
2022-11-24T23:19:06.603Z,60.75
2022-11-24T23:21:36.642Z,61.19
2022-11-24T23:24:04.604Z,61.35
2022-11-24T23:26:36.131Z,61.61
2022-11-24T23:29:06.720Z,61.10
2022-11-24T23:31:34.099Z,60.95
2022-11-24T23:34:03.525Z,61.00
2022-11-24T23:36:32.426Z,60.49
2022-11-24T23:39:07.465Z,60.92
2022-11-24T23:41:34.878Z,60.79
2022-11-24T23:44:01.985Z,60.11
2022-11-24T23:46:29.330Z,60.43
2022-11-24T23:48:57.288Z,60.46
2022-11-24T23:51:26.917Z,60.91
2022-11-24T23:53:54.802Z,60.97
2022-11-24T23:56:24.953Z,60.60
2022-11-24T23:58:52.121Z,61.02
